Terminal Aerodrome Forecast
Issued by NWS

Home | Current Version | Previous Version | Text Only | Print | Product List | Glossary Off
Versions: 1 2 3 4 5 6 7 8 9 10 11 12 13 14 15 16 17 18 19 20 21

000
FTUS43 KABR 251500 AAB
TAFPIR
TAF AMD
KPIR 251523Z 2515/2612 04018KT 2SM -SN BR OVC015
      TEMPO 2515/2518 4SM -SN FEW015 BKN025 OVC050
     FM251800 01018G26KT 4SM -SN SCT025 BKN040 OVC060
     FM252200 35015G23KT P6SM OVC050
     FM260700 34010KT P6SM SCT050 SCT120=

USA.gov is the U.S. government's official web portal to all federal, state and local government web resources and services.